Terminal Aerodrome Forecast
Issued by NWS

Home | Current Version | Previous Version | Text Only | Print | Product List | Glossary On
Versions: 1 2 3 4 5 6 7 8 9 10 11 12 13 14 15 16 17 18 19 20
259
FTUS46 KHNX 190806 AAA
TAFFAT
TAF AMD
KFAT 190806Z 1908/2006 33007KT 3SM BR BKN020
     FM191000 31010KT 2SM -RA BR BKN020 OVC040
     FM191300 31010KT 3SM BR BKN020 OVC040
     FM191800 32010KT 3SM BR VCSH BKN030=

USA.gov is the U.S. government's official web portal to all federal, state and local government web resources and services.